sensor_id;sensor_type;location;lat;lon;timestamp;P1;durP1;ratioP1;P2;durP2;ratioP2
7110;SDS011;3597;42.650;23.386;2023-02-28T00:02:15;2.13;;;2.13;;
7110;SDS011;3597;42.650;23.386;2023-02-28T00:04:42;2.40;;;2.30;;
7110;SDS011;3597;42.650;23.386;2023-02-28T00:07:08;2.10;;;2.07;;
7110;SDS011;3597;42.650;23.386;2023-02-28T00:09:33;3.13;;;2.93;;
7110;SDS011;3597;42.650;23.386;2023-02-28T00:11:59;2.90;;;2.80;;
7110;SDS011;3597;42.650;23.386;2023-02-28T00:14:24;2.83;;;2.73;;
7110;SDS011;3597;42.650;23.386;2023-02-28T00:16:49;2.43;;;2.33;;
7110;SDS011;3597;42.650;23.386;2023-02-28T00:19:15;3.87;;;3.57;;
7110;SDS011;3597;42.650;23.386;2023-02-28T00:21:40;3.10;;;2.90;;
7110;SDS011;3597;42.650;23.386;2023-02-28T00:24:24;2.93;;;2.83;;
7110;SDS011;3597;42.650;23.386;2023-02-28T00:26:49;3.10;;;2.90;;
7110;SDS011;3597;42.650;23.386;2023-02-28T00:29:15;3.20;;;3.10;;
7110;SDS011;3597;42.650;23.386;2023-02-28T00:31:40;3.17;;;2.50;;
7110;SDS011;3597;42.650;23.386;2023-02-28T00:34:05;2.90;;;2.80;;
7110;SDS011;3597;42.650;23.386;2023-02-28T00:36:31;3.10;;;2.90;;
7110;SDS011;3597;42.650;23.386;2023-02-28T00:38:56;2.70;;;2.60;;
7110;SDS011;3597;42.650;23.386;2023-02-28T00:41:21;3.30;;;3.10;;
7110;SDS011;3597;42.650;23.386;2023-02-28T00:43:47;2.67;;;2.57;;
7110;SDS011;3597;42.650;23.386;2023-02-28T00:46:12;3.27;;;3.17;;
7110;SDS011;3597;42.650;23.386;2023-02-28T00:48:38;2.93;;;2.83;;
7110;SDS011;3597;42.650;23.386;2023-02-28T00:51:03;2.63;;;2.53;;
7110;SDS011;3597;42.650;23.386;2023-02-28T00:53:29;3.30;;;3.10;;
7110;SDS011;3597;42.650;23.386;2023-02-28T00:55:54;3.17;;;2.97;;
7110;SDS011;3597;42.650;23.386;2023-02-28T00:58:20;2.50;;;2.40;;
7110;SDS011;3597;42.650;23.386;2023-02-28T01:00:45;2.70;;;2.60;;
7110;SDS011;3597;42.650;23.386;2023-02-28T01:03:14;3.17;;;2.97;;
7110;SDS011;3597;42.650;23.386;2023-02-28T01:05:43;2.87;;;2.77;;
7110;SDS011;3597;42.650;23.386;2023-02-28T01:08:08;3.07;;;2.83;;
7110;SDS011;3597;42.650;23.386;2023-02-28T01:10:33;2.97;;;2.87;;
7110;SDS011;3597;42.650;23.386;2023-02-28T01:12:59;2.63;;;2.53;;
7110;SDS011;3597;42.650;23.386;2023-02-28T01:15:24;3.43;;;3.33;;
7110;SDS011;3597;42.650;23.386;2023-02-28T01:17:49;2.10;;;2.00;;
7110;SDS011;3597;42.650;23.386;2023-02-28T01:20:15;2.77;;;2.67;;
7110;SDS011;3597;42.650;23.386;2023-02-28T01:22:40;3.33;;;3.13;;
7110;SDS011;3597;42.650;23.386;2023-02-28T01:25:06;3.27;;;2.97;;
7110;SDS011;3597;42.650;23.386;2023-02-28T01:27:31;2.53;;;2.43;;
7110;SDS011;3597;42.650;23.386;2023-02-28T01:29:58;3.10;;;2.77;;
7110;SDS011;3597;42.650;23.386;2023-02-28T01:32:23;3.13;;;2.83;;
7110;SDS011;3597;42.650;23.386;2023-02-28T01:34:48;3.00;;;2.90;;
7110;SDS011;3597;42.650;23.386;2023-02-28T01:37:14;3.50;;;3.20;;
7110;SDS011;3597;42.650;23.386;2023-02-28T01:39:39;5.27;;;3.17;;
7110;SDS011;3597;42.650;23.386;2023-02-28T01:42:05;3.30;;;3.20;;
7110;SDS011;3597;42.650;23.386;2023-02-28T01:47:31;3.40;;;3.30;;
7110;SDS011;3597;42.650;23.386;2023-02-28T01:50:02;3.63;;;3.40;;
7110;SDS011;3597;42.650;23.386;2023-02-28T01:52:29;3.37;;;3.27;;
7110;SDS011;3597;42.650;23.386;2023-02-28T01:54:56;3.30;;;3.13;;
7110;SDS011;3597;42.650;23.386;2023-02-28T01:57:24;3.10;;;3.00;;
7110;SDS011;3597;42.650;23.386;2023-02-28T01:59:54;3.10;;;2.87;;
7110;SDS011;3597;42.650;23.386;2023-02-28T02:02:25;3.90;;;3.73;;
7110;SDS011;3597;42.650;23.386;2023-02-28T02:05:03;3.17;;;3.07;;
7110;SDS011;3597;42.650;23.386;2023-02-28T02:07:34;3.27;;;3.17;;
7110;SDS011;3597;42.650;23.386;2023-02-28T02:10:01;3.07;;;2.97;;
7110;SDS011;3597;42.650;23.386;2023-02-28T02:15:53;3.40;;;3.30;;
7110;SDS011;3597;42.650;23.386;2023-02-28T02:26:58;2.77;;;2.67;;
7110;SDS011;3597;42.650;23.386;2023-02-28T02:40:56;3.73;;;3.43;;
7110;SDS011;3597;42.650;23.386;2023-02-28T02:43:51;3.20;;;3.10;;
7110;SDS011;3597;42.650;23.386;2023-02-28T02:46:34;3.53;;;3.30;;
7110;SDS011;3597;42.650;23.386;2023-02-28T02:49:03;3.27;;;3.17;;
7110;SDS011;3597;42.650;23.386;2023-02-28T02:51:31;3.03;;;2.93;;
7110;SDS011;3597;42.650;23.386;2023-02-28T02:54:00;3.10;;;2.90;;
7110;SDS011;3597;42.650;23.386;2023-02-28T02:56:30;3.77;;;3.57;;
7110;SDS011;3597;42.650;23.386;2023-02-28T02:58:59;3.37;;;3.17;;
7110;SDS011;3597;42.650;23.386;2023-02-28T03:01:26;3.57;;;3.27;;
7110;SDS011;3597;42.650;23.386;2023-02-28T03:03:55;3.40;;;3.10;;
7110;SDS011;3597;42.650;23.386;2023-02-28T03:06:21;3.20;;;3.10;;
7110;SDS011;3597;42.650;23.386;2023-02-28T03:08:47;3.30;;;3.20;;
7110;SDS011;3597;42.650;23.386;2023-02-28T03:11:13;3.40;;;3.30;;
7110;SDS011;3597;42.650;23.386;2023-02-28T03:21:43;2.70;;;2.60;;
7110;SDS011;3597;42.650;23.386;2023-02-28T03:26:42;3.50;;;3.40;;
7110;SDS011;3597;42.650;23.386;2023-02-28T03:29:21;3.33;;;3.13;;
7110;SDS011;3597;42.650;23.386;2023-02-28T03:31:52;3.60;;;3.43;;
7110;SDS011;3597;42.650;23.386;2023-02-28T03:34:24;3.07;;;2.97;;
7110;SDS011;3597;42.650;23.386;2023-02-28T03:36:54;3.40;;;3.20;;
7110;SDS011;3597;42.650;23.386;2023-02-28T03:39:24;3.23;;;3.03;;
7110;SDS011;3597;42.650;23.386;2023-02-28T03:41:57;4.10;;;3.80;;
7110;SDS011;3597;42.650;23.386;2023-02-28T03:44:26;3.40;;;3.13;;
7110;SDS011;3597;42.650;23.386;2023-02-28T03:49:35;3.20;;;2.90;;
7110;SDS011;3597;42.650;23.386;2023-02-28T03:52:08;8.17;;;5.03;;
7110;SDS011;3597;42.650;23.386;2023-02-28T03:54:36;3.90;;;3.70;;
7110;SDS011;3597;42.650;23.386;2023-02-28T03:57:26;3.70;;;3.50;;
7110;SDS011;3597;42.650;23.386;2023-02-28T03:59:56;3.70;;;3.50;;
7110;SDS011;3597;42.650;23.386;2023-02-28T04:02:24;3.43;;;3.33;;
7110;SDS011;3597;42.650;23.386;2023-02-28T04:04:50;3.60;;;3.30;;
7110;SDS011;3597;42.650;23.386;2023-02-28T04:07:16;4.07;;;3.87;;
7110;SDS011;3597;42.650;23.386;2023-02-28T04:09:42;3.47;;;3.13;;
7110;SDS011;3597;42.650;23.386;2023-02-28T04:12:07;3.47;;;3.33;;
7110;SDS011;3597;42.650;23.386;2023-02-28T04:14:33;4.60;;;3.73;;
7110;SDS011;3597;42.650;23.386;2023-02-28T04:16:58;3.70;;;3.50;;
7110;SDS011;3597;42.650;23.386;2023-02-28T04:19:24;2.93;;;2.83;;
7110;SDS011;3597;42.650;23.386;2023-02-28T04:21:51;3.23;;;3.03;;
7110;SDS011;3597;42.650;23.386;2023-02-28T04:24:21;3.80;;;3.50;;
7110;SDS011;3597;42.650;23.386;2023-02-28T04:26:49;3.53;;;3.33;;
7110;SDS011;3597;42.650;23.386;2023-02-28T04:29:23;3.20;;;2.87;;
7110;SDS011;3597;42.650;23.386;2023-02-28T04:31:50;3.37;;;3.27;;
7110;SDS011;3597;42.650;23.386;2023-02-28T04:34:15;3.70;;;3.43;;
7110;SDS011;3597;42.650;23.386;2023-02-28T04:36:41;1.97;;;1.97;;
7110;SDS011;3597;42.650;23.386;2023-02-28T04:39:07;3.67;;;3.33;;
7110;SDS011;3597;42.650;23.386;2023-02-28T04:41:32;3.47;;;3.27;;
7110;SDS011;3597;42.650;23.386;2023-02-28T04:43:58;3.33;;;3.03;;
7110;SDS011;3597;42.650;23.386;2023-02-28T04:46:23;3.83;;;3.43;;
7110;SDS011;3597;42.650;23.386;2023-02-28T04:48:49;3.93;;;3.63;;
7110;SDS011;3597;42.650;23.386;2023-02-28T04:51:15;12.00;;;3.50;;
7110;SDS011;3597;42.650;23.386;2023-02-28T04:53:42;6.47;;;4.50;;
7110;SDS011;3597;42.650;23.386;2023-02-28T04:56:08;6.77;;;4.33;;
7110;SDS011;3597;42.650;23.386;2023-02-28T04:58:36;4.37;;;4.13;;
7110;SDS011;3597;42.650;23.386;2023-02-28T05:01:06;4.97;;;4.57;;
7110;SDS011;3597;42.650;23.386;2023-02-28T05:03:38;5.83;;;4.20;;
7110;SDS011;3597;42.650;23.386;2023-02-28T05:06:05;4.10;;;3.87;;
7110;SDS011;3597;42.650;23.386;2023-02-28T05:08:32;4.63;;;4.23;;
7110;SDS011;3597;42.650;23.386;2023-02-28T05:10:57;4.53;;;4.23;;
7110;SDS011;3597;42.650;23.386;2023-02-28T05:13:22;5.27;;;4.90;;
7110;SDS011;3597;42.650;23.386;2023-02-28T05:15:48;5.00;;;4.60;;
7110;SDS011;3597;42.650;23.386;2023-02-28T05:18:13;4.80;;;4.20;;
7110;SDS011;3597;42.650;23.386;2023-02-28T05:20:38;6.07;;;5.57;;
7110;SDS011;3597;42.650;23.386;2023-02-28T05:23:04;4.83;;;4.40;;
7110;SDS011;3597;42.650;23.386;2023-02-28T05:25:29;4.27;;;3.97;;
7110;SDS011;3597;42.650;23.386;2023-02-28T05:27:54;5.30;;;4.77;;
7110;SDS011;3597;42.650;23.386;2023-02-28T05:30:20;4.00;;;3.70;;
7110;SDS011;3597;42.650;23.386;2023-02-28T05:32:49;4.70;;;4.17;;
7110;SDS011;3597;42.650;23.386;2023-02-28T05:35:15;4.90;;;4.50;;
7110;SDS011;3597;42.650;23.386;2023-02-28T05:37:41;3.83;;;3.63;;
7110;SDS011;3597;42.650;23.386;2023-02-28T05:40:06;8.73;;;4.43;;
7110;SDS011;3597;42.650;23.386;2023-02-28T05:42:35;3.87;;;3.57;;
7110;SDS011;3597;42.650;23.386;2023-02-28T05:45:01;7.50;;;4.17;;
7110;SDS011;3597;42.650;23.386;2023-02-28T05:47:26;4.10;;;3.93;;
7110;SDS011;3597;42.650;23.386;2023-02-28T05:49:51;3.73;;;3.63;;
7110;SDS011;3597;42.650;23.386;2023-02-28T05:52:17;8.10;;;4.67;;
7110;SDS011;3597;42.650;23.386;2023-02-28T05:54:42;4.27;;;4.00;;
7110;SDS011;3597;42.650;23.386;2023-02-28T05:57:08;4.33;;;4.00;;
7110;SDS011;3597;42.650;23.386;2023-02-28T05:59:33;3.67;;;3.47;;
7110;SDS011;3597;42.650;23.386;2023-02-28T06:01:59;4.53;;;4.23;;
7110;SDS011;3597;42.650;23.386;2023-02-28T06:04:24;4.17;;;3.87;;
7110;SDS011;3597;42.650;23.386;2023-02-28T06:06:50;4.40;;;4.10;;
7110;SDS011;3597;42.650;23.386;2023-02-28T06:09:16;4.73;;;4.33;;
7110;SDS011;3597;42.650;23.386;2023-02-28T06:11:42;3.57;;;3.37;;
7110;SDS011;3597;42.650;23.386;2023-02-28T06:14:12;3.90;;;3.70;;
7110;SDS011;3597;42.650;23.386;2023-02-28T06:16:40;4.47;;;4.20;;
7110;SDS011;3597;42.650;23.386;2023-02-28T06:19:05;3.97;;;3.77;;
7110;SDS011;3597;42.650;23.386;2023-02-28T06:21:31;4.13;;;3.83;;
7110;SDS011;3597;42.650;23.386;2023-02-28T06:23:57;4.53;;;4.23;;
7110;SDS011;3597;42.650;23.386;2023-02-28T06:26:23;4.37;;;4.17;;
7110;SDS011;3597;42.650;23.386;2023-02-28T06:28:49;4.23;;;4.03;;
7110;SDS011;3597;42.650;23.386;2023-02-28T06:31:15;5.03;;;4.60;;
7110;SDS011;3597;42.650;23.386;2023-02-28T06:33:41;3.87;;;3.60;;
7110;SDS011;3597;42.650;23.386;2023-02-28T06:36:07;4.63;;;4.33;;
7110;SDS011;3597;42.650;23.386;2023-02-28T06:38:34;4.20;;;4.00;;
7110;SDS011;3597;42.650;23.386;2023-02-28T06:41:00;3.53;;;3.33;;
7110;SDS011;3597;42.650;23.386;2023-02-28T06:43:30;3.90;;;3.23;;
7110;SDS011;3597;42.650;23.386;2023-02-28T06:45:59;2.93;;;2.83;;
7110;SDS011;3597;42.650;23.386;2023-02-28T06:48:26;3.80;;;3.67;;
7110;SDS011;3597;42.650;23.386;2023-02-28T06:50:52;5.83;;;3.37;;
7110;SDS011;3597;42.650;23.386;2023-02-28T06:53:18;3.37;;;3.27;;
7110;SDS011;3597;42.650;23.386;2023-02-28T06:55:43;4.07;;;3.77;;
7110;SDS011;3597;42.650;23.386;2023-02-28T06:58:09;3.60;;;3.40;;
7110;SDS011;3597;42.650;23.386;2023-02-28T07:00:44;4.30;;;4.00;;
7110;SDS011;3597;42.650;23.386;2023-02-28T07:03:10;5.27;;;4.90;;
7110;SDS011;3597;42.650;23.386;2023-02-28T07:05:40;4.73;;;4.43;;
7110;SDS011;3597;42.650;23.386;2023-02-28T07:08:06;4.33;;;4.03;;
7110;SDS011;3597;42.650;23.386;2023-02-28T07:10:36;4.67;;;4.37;;
7110;SDS011;3597;42.650;23.386;2023-02-28T07:13:03;3.83;;;3.53;;
7110;SDS011;3597;42.650;23.386;2023-02-28T07:15:29;4.77;;;4.47;;
7110;SDS011;3597;42.650;23.386;2023-02-28T07:17:54;4.77;;;4.47;;
7110;SDS011;3597;42.650;23.386;2023-02-28T07:20:21;4.07;;;3.83;;
7110;SDS011;3597;42.650;23.386;2023-02-28T07:22:46;4.30;;;4.03;;
7110;SDS011;3597;42.650;23.386;2023-02-28T07:25:16;3.50;;;3.30;;
7110;SDS011;3597;42.650;23.386;2023-02-28T07:27:42;3.93;;;3.73;;
7110;SDS011;3597;42.650;23.386;2023-02-28T07:30:07;3.87;;;3.63;;
7110;SDS011;3597;42.650;23.386;2023-02-28T07:32:33;2.97;;;2.87;;
7110;SDS011;3597;42.650;23.386;2023-02-28T07:35:02;3.50;;;3.30;;
7110;SDS011;3597;42.650;23.386;2023-02-28T07:37:28;3.23;;;3.03;;
7110;SDS011;3597;42.650;23.386;2023-02-28T07:39:56;3.53;;;3.27;;
7110;SDS011;3597;42.650;23.386;2023-02-28T07:42:22;5.10;;;2.73;;
7110;SDS011;3597;42.650;23.386;2023-02-28T07:44:47;7.83;;;4.17;;
7110;SDS011;3597;42.650;23.386;2023-02-28T07:47:12;3.40;;;3.20;;
7110;SDS011;3597;42.650;23.386;2023-02-28T07:49:38;3.60;;;3.50;;
7110;SDS011;3597;42.650;23.386;2023-02-28T07:52:04;3.43;;;3.27;;
7110;SDS011;3597;42.650;23.386;2023-02-28T07:54:30;7.37;;;4.70;;
7110;SDS011;3597;42.650;23.386;2023-02-28T07:56:56;5.10;;;4.80;;
7110;SDS011;3597;42.650;23.386;2023-02-28T07:59:21;3.93;;;3.63;;
7110;SDS011;3597;42.650;23.386;2023-02-28T08:01:46;4.47;;;4.10;;
7110;SDS011;3597;42.650;23.386;2023-02-28T08:04:14;4.23;;;4.03;;
7110;SDS011;3597;42.650;23.386;2023-02-28T08:06:39;3.90;;;3.63;;
7110;SDS011;3597;42.650;23.386;2023-02-28T08:09:05;4.13;;;3.83;;
7110;SDS011;3597;42.650;23.386;2023-02-28T08:11:31;4.57;;;4.17;;
7110;SDS011;3597;42.650;23.386;2023-02-28T08:13:56;3.20;;;3.10;;
7110;SDS011;3597;42.650;23.386;2023-02-28T08:16:21;4.00;;;3.80;;
7110;SDS011;3597;42.650;23.386;2023-02-28T08:18:53;4.83;;;4.20;;
7110;SDS011;3597;42.650;23.386;2023-02-28T08:21:19;4.33;;;3.80;;
7110;SDS011;3597;42.650;23.386;2023-02-28T08:23:48;4.40;;;4.20;;
7110;SDS011;3597;42.650;23.386;2023-02-28T08:26:15;5.07;;;4.73;;
7110;SDS011;3597;42.650;23.386;2023-02-28T08:28:43;4.87;;;4.47;;
7110;SDS011;3597;42.650;23.386;2023-02-28T08:31:10;2.63;;;2.63;;
7110;SDS011;3597;42.650;23.386;2023-02-28T08:33:37;5.17;;;4.80;;
7110;SDS011;3597;42.650;23.386;2023-02-28T08:36:04;4.00;;;3.73;;
7110;SDS011;3597;42.650;23.386;2023-02-28T08:38:30;4.77;;;4.50;;
7110;SDS011;3597;42.650;23.386;2023-02-28T08:40:59;4.27;;;4.00;;
7110;SDS011;3597;42.650;23.386;2023-02-28T08:43:25;3.57;;;3.37;;
7110;SDS011;3597;42.650;23.386;2023-02-28T08:45:51;3.53;;;3.30;;
7110;SDS011;3597;42.650;23.386;2023-02-28T08:48:17;4.63;;;4.33;;
7110;SDS011;3597;42.650;23.386;2023-02-28T08:50:43;3.43;;;3.33;;
7110;SDS011;3597;42.650;23.386;2023-02-28T08:53:08;4.60;;;4.17;;
7110;SDS011;3597;42.650;23.386;2023-02-28T08:55:33;3.20;;;3.00;;
7110;SDS011;3597;42.650;23.386;2023-02-28T08:57:59;3.73;;;3.57;;
7110;SDS011;3597;42.650;23.386;2023-02-28T09:00:26;4.13;;;3.93;;
7110;SDS011;3597;42.650;23.386;2023-02-28T09:02:51;4.40;;;4.00;;
7110;SDS011;3597;42.650;23.386;2023-02-28T09:05:17;3.53;;;3.27;;
7110;SDS011;3597;42.650;23.386;2023-02-28T09:07:42;3.87;;;3.67;;
7110;SDS011;3597;42.650;23.386;2023-02-28T09:10:08;3.67;;;3.47;;
7110;SDS011;3597;42.650;23.386;2023-02-28T09:12:34;3.97;;;3.60;;
7110;SDS011;3597;42.650;23.386;2023-02-28T09:15:00;3.27;;;3.17;;
7110;SDS011;3597;42.650;23.386;2023-02-28T09:17:26;3.73;;;3.63;;
7110;SDS011;3597;42.650;23.386;2023-02-28T09:19:51;2.90;;;2.80;;
7110;SDS011;3597;42.650;23.386;2023-02-28T09:22:16;2.97;;;2.87;;
7110;SDS011;3597;42.650;23.386;2023-02-28T09:24:42;3.87;;;3.67;;
7110;SDS011;3597;42.650;23.386;2023-02-28T09:27:07;3.97;;;3.87;;
7110;SDS011;3597;42.650;23.386;2023-02-28T09:29:33;3.53;;;3.33;;
7110;SDS011;3597;42.650;23.386;2023-02-28T09:31:59;3.53;;;3.33;;
7110;SDS011;3597;42.650;23.386;2023-02-28T09:34:25;4.07;;;3.77;;
7110;SDS011;3597;42.650;23.386;2023-02-28T09:36:51;3.33;;;3.13;;
7110;SDS011;3597;42.650;23.386;2023-02-28T09:39:19;3.27;;;3.07;;
7110;SDS011;3597;42.650;23.386;2023-02-28T09:41:47;3.70;;;3.50;;
7110;SDS011;3597;42.650;23.386;2023-02-28T09:44:58;3.00;;;2.77;;
7110;SDS011;3597;42.650;23.386;2023-02-28T09:49:40;3.07;;;2.97;;
7110;SDS011;3597;42.650;23.386;2023-02-28T09:52:10;3.63;;;3.43;;
7110;SDS011;3597;42.650;23.386;2023-02-28T09:54:41;3.73;;;3.53;;
7110;SDS011;3597;42.650;23.386;2023-02-28T10:06:14;3.20;;;3.10;;
7110;SDS011;3597;42.650;23.386;2023-02-28T10:08:36;3.03;;;2.90;;
7110;SDS011;3597;42.650;23.386;2023-02-28T10:11:07;3.27;;;3.17;;
7110;SDS011;3597;42.650;23.386;2023-02-28T10:16:44;3.00;;;2.80;;
7110;SDS011;3597;42.650;23.386;2023-02-28T10:19:20;4.37;;;3.70;;
7110;SDS011;3597;42.650;23.386;2023-02-28T10:21:57;3.57;;;3.43;;
7110;SDS011;3597;42.650;23.386;2023-02-28T10:27:00;5.23;;;4.03;;
7110;SDS011;3597;42.650;23.386;2023-02-28T10:29:27;4.10;;;3.80;;
7110;SDS011;3597;42.650;23.386;2023-02-28T10:32:01;3.30;;;3.20;;
7110;SDS011;3597;42.650;23.386;2023-02-28T10:34:27;6.10;;;3.60;;
7110;SDS011;3597;42.650;23.386;2023-02-28T10:36:53;2.63;;;2.53;;
7110;SDS011;3597;42.650;23.386;2023-02-28T10:42:04;3.13;;;3.03;;
7110;SDS011;3597;42.650;23.386;2023-02-28T10:44:30;3.67;;;3.37;;
7110;SDS011;3597;42.650;23.386;2023-02-28T10:46:55;3.93;;;2.87;;
7110;SDS011;3597;42.650;23.386;2023-02-28T10:49:26;2.97;;;2.87;;
7110;SDS011;3597;42.650;23.386;2023-02-28T10:51:57;3.50;;;3.20;;
7110;SDS011;3597;42.650;23.386;2023-02-28T10:54:29;3.00;;;2.90;;
7110;SDS011;3597;42.650;23.386;2023-02-28T10:59:40;3.83;;;3.53;;
7110;SDS011;3597;42.650;23.386;2023-02-28T11:02:28;3.83;;;3.47;;
7110;SDS011;3597;42.650;23.386;2023-02-28T11:04:58;3.53;;;3.43;;
7110;SDS011;3597;42.650;23.386;2023-02-28T11:07:25;3.63;;;3.33;;
7110;SDS011;3597;42.650;23.386;2023-02-28T11:09:51;3.70;;;3.50;;
7110;SDS011;3597;42.650;23.386;2023-02-28T11:12:22;3.40;;;3.20;;
7110;SDS011;3597;42.650;23.386;2023-02-28T11:14:54;3.33;;;3.20;;
7110;SDS011;3597;42.650;23.386;2023-02-28T11:17:23;3.93;;;3.70;;
7110;SDS011;3597;42.650;23.386;2023-02-28T11:19:51;4.07;;;3.87;;
7110;SDS011;3597;42.650;23.386;2023-02-28T11:22:22;5.90;;;5.63;;
7110;SDS011;3597;42.650;23.386;2023-02-28T11:24:50;5.30;;;5.10;;
7110;SDS011;3597;42.650;23.386;2023-02-28T11:30:05;6.07;;;5.77;;
7110;SDS011;3597;42.650;23.386;2023-02-28T11:32:49;3.27;;;3.17;;
7110;SDS011;3597;42.650;23.386;2023-02-28T11:35:17;5.50;;;5.00;;
7110;SDS011;3597;42.650;23.386;2023-02-28T11:37:47;3.83;;;3.73;;
7110;SDS011;3597;42.650;23.386;2023-02-28T11:40:17;4.77;;;4.57;;
7110;SDS011;3597;42.650;23.386;2023-02-28T11:53:05;5.33;;;5.00;;
7110;SDS011;3597;42.650;23.386;2023-02-28T11:55:45;5.70;;;5.40;;
7110;SDS011;3597;42.650;23.386;2023-02-28T12:03:48;4.87;;;4.60;;
7110;SDS011;3597;42.650;23.386;2023-02-28T12:06:25;5.90;;;5.73;;
7110;SDS011;3597;42.650;23.386;2023-02-28T12:19:18;5.67;;;5.47;;
7110;SDS011;3597;42.650;23.386;2023-02-28T12:21:59;4.93;;;4.83;;
7110;SDS011;3597;42.650;23.386;2023-02-28T12:27:07;6.20;;;6.00;;
7110;SDS011;3597;42.650;23.386;2023-02-28T12:32:43;4.50;;;4.30;;
7110;SDS011;3597;42.650;23.386;2023-02-28T12:35:11;3.63;;;3.43;;
7110;SDS011;3597;42.650;23.386;2023-02-28T12:40:27;3.20;;;3.10;;
7110;SDS011;3597;42.650;23.386;2023-02-28T12:43:04;3.80;;;3.60;;
7110;SDS011;3597;42.650;23.386;2023-02-28T12:48:15;4.70;;;4.33;;
7110;SDS011;3597;42.650;23.386;2023-02-28T12:50:45;4.50;;;4.40;;
7110;SDS011;3597;42.650;23.386;2023-02-28T13:10:45;2.90;;;2.80;;
7110;SDS011;3597;42.650;23.386;2023-02-28T13:13:17;3.33;;;3.23;;
7110;SDS011;3597;42.650;23.386;2023-02-28T13:15:56;4.67;;;4.47;;
7110;SDS011;3597;42.650;23.386;2023-02-28T13:21:21;4.37;;;4.17;;
7110;SDS011;3597;42.650;23.386;2023-02-28T13:26:20;3.83;;;3.00;;
7110;SDS011;3597;42.650;23.386;2023-02-28T13:34:27;2.97;;;2.90;;
7110;SDS011;3597;42.650;23.386;2023-02-28T13:37:00;3.33;;;3.23;;
7110;SDS011;3597;42.650;23.386;2023-02-28T13:53:01;6.93;;;3.73;;
7110;SDS011;3597;42.650;23.386;2023-02-28T14:06:53;3.00;;;2.90;;
7110;SDS011;3597;42.650;23.386;2023-02-28T14:09:26;2.60;;;2.60;;
7110;SDS011;3597;42.650;23.386;2023-02-28T14:11:53;3.20;;;3.00;;
7110;SDS011;3597;42.650;23.386;2023-02-28T14:17:01;3.07;;;2.63;;
7110;SDS011;3597;42.650;23.386;2023-02-28T14:19:31;2.07;;;1.97;;
7110;SDS011;3597;42.650;23.386;2023-02-28T14:27:48;2.93;;;2.60;;
7110;SDS011;3597;42.650;23.386;2023-02-28T14:38:27;4.00;;;3.63;;
7110;SDS011;3597;42.650;23.386;2023-02-28T14:40:55;2.17;;;2.17;;
7110;SDS011;3597;42.650;23.386;2023-02-28T14:43:23;2.85;;;2.67;;
7110;SDS011;3597;42.650;23.386;2023-02-28T14:45:51;2.77;;;2.57;;
7110;SDS011;3597;42.650;23.386;2023-02-28T14:48:18;3.28;;;3.08;;
7110;SDS011;3597;42.650;23.386;2023-02-28T14:50:48;3.17;;;2.87;;
7110;SDS011;3597;42.650;23.386;2023-02-28T14:53:19;2.90;;;2.83;;
7110;SDS011;3597;42.650;23.386;2023-02-28T14:55:46;2.43;;;2.33;;
7110;SDS011;3597;42.650;23.386;2023-02-28T14:58:26;2.03;;;2.03;;
7110;SDS011;3597;42.650;23.386;2023-02-28T15:00:54;2.93;;;2.73;;
7110;SDS011;3597;42.650;23.386;2023-02-28T15:03:27;2.67;;;2.43;;
7110;SDS011;3597;42.650;23.386;2023-02-28T15:06:02;3.50;;;3.40;;
7110;SDS011;3597;42.650;23.386;2023-02-28T15:08:30;4.10;;;2.67;;
7110;SDS011;3597;42.650;23.386;2023-02-28T15:11:16;2.40;;;2.40;;
7110;SDS011;3597;42.650;23.386;2023-02-28T15:13:53;2.43;;;2.33;;
7110;SDS011;3597;42.650;23.386;2023-02-28T15:16:22;2.47;;;2.37;;
7110;SDS011;3597;42.650;23.386;2023-02-28T15:19:34;2.30;;;2.13;;
7110;SDS011;3597;42.650;23.386;2023-02-28T15:21:51;1.70;;;1.70;;
7110;SDS011;3597;42.650;23.386;2023-02-28T15:24:29;2.00;;;2.00;;
7110;SDS011;3597;42.650;23.386;2023-02-28T15:26:59;1.87;;;1.83;;
7110;SDS011;3597;42.650;23.386;2023-02-28T15:29:27;2.27;;;2.17;;
7110;SDS011;3597;42.650;23.386;2023-02-28T15:32:01;1.83;;;1.83;;
7110;SDS011;3597;42.650;23.386;2023-02-28T15:34:35;2.03;;;2.03;;
7110;SDS011;3597;42.650;23.386;2023-02-28T15:37:28;1.80;;;1.80;;
7110;SDS011;3597;42.650;23.386;2023-02-28T15:39:56;2.30;;;2.20;;
7110;SDS011;3597;42.650;23.386;2023-02-28T15:42:27;2.43;;;2.33;;
7110;SDS011;3597;42.650;23.386;2023-02-28T15:44:54;2.40;;;2.30;;
7110;SDS011;3597;42.650;23.386;2023-02-28T15:47:20;1.17;;;1.17;;
7110;SDS011;3597;42.650;23.386;2023-02-28T15:49:51;1.67;;;1.67;;
7110;SDS011;3597;42.650;23.386;2023-02-28T15:52:19;1.53;;;1.53;;
7110;SDS011;3597;42.650;23.386;2023-02-28T15:54:47;2.00;;;2.00;;
7110;SDS011;3597;42.650;23.386;2023-02-28T15:57:17;1.83;;;1.83;;
7110;SDS011;3597;42.650;23.386;2023-02-28T15:59:49;2.10;;;2.00;;
7110;SDS011;3597;42.650;23.386;2023-02-28T16:02:18;1.70;;;1.70;;
7110;SDS011;3597;42.650;23.386;2023-02-28T16:04:58;2.10;;;2.10;;
7110;SDS011;3597;42.650;23.386;2023-02-28T16:07:37;2.00;;;2.00;;
7110;SDS011;3597;42.650;23.386;2023-02-28T16:10:04;3.03;;;2.93;;
7110;SDS011;3597;42.650;23.386;2023-02-28T16:12:31;1.90;;;1.90;;
7110;SDS011;3597;42.650;23.386;2023-02-28T16:14:59;2.00;;;2.00;;
7110;SDS011;3597;42.650;23.386;2023-02-28T16:17:28;2.27;;;2.07;;
7110;SDS011;3597;42.650;23.386;2023-02-28T16:19:56;1.80;;;1.80;;
7110;SDS011;3597;42.650;23.386;2023-02-28T16:22:21;1.67;;;1.67;;
7110;SDS011;3597;42.650;23.386;2023-02-28T16:24:47;1.90;;;1.80;;
7110;SDS011;3597;42.650;23.386;2023-02-28T16:29:52;1.60;;;1.60;;
7110;SDS011;3597;42.650;23.386;2023-02-28T16:32:18;1.90;;;1.90;;
7110;SDS011;3597;42.650;23.386;2023-02-28T16:34:43;1.97;;;1.93;;
7110;SDS011;3597;42.650;23.386;2023-02-28T16:37:11;1.60;;;1.60;;
7110;SDS011;3597;42.650;23.386;2023-02-28T16:39:41;2.07;;;2.07;;
7110;SDS011;3597;42.650;23.386;2023-02-28T16:42:09;1.40;;;1.40;;
7110;SDS011;3597;42.650;23.386;2023-02-28T16:44:36;2.20;;;2.10;;
7110;SDS011;3597;42.650;23.386;2023-02-28T16:47:02;2.17;;;2.07;;
7110;SDS011;3597;42.650;23.386;2023-02-28T16:49:28;1.70;;;1.70;;
7110;SDS011;3597;42.650;23.386;2023-02-28T16:51:54;1.53;;;1.53;;
7110;SDS011;3597;42.650;23.386;2023-02-28T16:54:19;1.53;;;1.53;;
7110;SDS011;3597;42.650;23.386;2023-02-28T16:56:45;1.67;;;1.67;;
7110;SDS011;3597;42.650;23.386;2023-02-28T16:59:12;1.13;;;1.13;;
7110;SDS011;3597;42.650;23.386;2023-02-28T17:01:37;1.30;;;1.30;;
7110;SDS011;3597;42.650;23.386;2023-02-28T17:04:03;1.33;;;1.33;;
7110;SDS011;3597;42.650;23.386;2023-02-28T17:06:29;2.33;;;1.60;;
7110;SDS011;3597;42.650;23.386;2023-02-28T17:08:54;1.20;;;1.20;;
7110;SDS011;3597;42.650;23.386;2023-02-28T17:11:20;1.70;;;1.70;;
7110;SDS011;3597;42.650;23.386;2023-02-28T17:13:47;1.03;;;1.03;;
7110;SDS011;3597;42.650;23.386;2023-02-28T17:16:15;1.10;;;1.10;;
7110;SDS011;3597;42.650;23.386;2023-02-28T17:18:45;1.00;;;1.00;;
7110;SDS011;3597;42.650;23.386;2023-02-28T17:21:15;1.20;;;1.20;;
7110;SDS011;3597;42.650;23.386;2023-02-28T17:23:41;1.10;;;1.10;;
7110;SDS011;3597;42.650;23.386;2023-02-28T17:26:06;1.73;;;1.73;;
7110;SDS011;3597;42.650;23.386;2023-02-28T17:28:32;1.20;;;1.20;;
7110;SDS011;3597;42.650;23.386;2023-02-28T17:30:57;1.00;;;1.00;;
7110;SDS011;3597;42.650;23.386;2023-02-28T17:33:23;1.20;;;1.20;;
7110;SDS011;3597;42.650;23.386;2023-02-28T17:35:48;1.27;;;1.27;;
7110;SDS011;3597;42.650;23.386;2023-02-28T17:38:14;1.17;;;1.17;;
7110;SDS011;3597;42.650;23.386;2023-02-28T17:40:40;1.00;;;1.00;;
7110;SDS011;3597;42.650;23.386;2023-02-28T17:43:05;0.93;;;0.93;;
7110;SDS011;3597;42.650;23.386;2023-02-28T17:45:31;3.30;;;1.27;;
7110;SDS011;3597;42.650;23.386;2023-02-28T17:47:56;1.00;;;1.00;;
7110;SDS011;3597;42.650;23.386;2023-02-28T17:50:22;1.00;;;1.00;;
7110;SDS011;3597;42.650;23.386;2023-02-28T17:52:48;0.70;;;0.70;;
7110;SDS011;3597;42.650;23.386;2023-02-28T17:55:15;0.90;;;0.90;;
7110;SDS011;3597;42.650;23.386;2023-02-28T17:57:40;1.10;;;1.10;;
7110;SDS011;3597;42.650;23.386;2023-02-28T18:00:07;0.90;;;0.90;;
7110;SDS011;3597;42.650;23.386;2023-02-28T18:02:37;1.00;;;1.00;;